Time;durP1;ratioP1;P1;durP2;ratioP2;P2;SDS_P1;SDS_P2;PMS_P1;PMS_P2;Temp;Humidity;BMP_temperature;BMP_pressure;BME280_temperature;BME280_humidity;BME280_pressure;Samples;Min_cycle;Max_cycle;Signal;HPM_P1;HPM_P2
2022/01/27 00:04:40;;;;;;;12.30;6.95;;;;;;;-1.24;97.64;100584.72;10376089;28;20042;-75
2022/01/27 00:10:09;;;;;;;9.82;5.68;;;;;;;-1.77;97.40;100504.34;10375357;28;20038;-75
2022/01/27 00:15:12;;;;;;;11.75;6.07;;;;;;;-2.60;98.49;100421.25;10376931;28;20046;-75
2022/01/27 00:20:14;;;;;;;9.02;5.00;;;;;;;-2.34;98.13;100464.03;10375451;28;20042;-74
2022/01/27 00:25:15;;;;;;;7.82;4.60;;;;;;;-2.08;98.22;100512.09;10375973;28;20045;-75
2022/01/27 00:30:16;;;;;;;7.35;4.07;;;;;;;-3.04;98.69;100351.66;10374812;28;20038;-75
2022/01/27 00:35:17;;;;;;;7.97;4.78;;;;;;;-3.60;98.64;100245.53;10374409;28;20065;-75
2022/01/27 00:40:18;;;;;;;8.73;4.88;;;;;;;-2.00;97.49;100522.09;10374001;28;20104;-75
2022/01/27 00:45:19;;;;;;;8.30;4.72;;;;;;;-3.98;97.59;100186.94;10373959;28;20054;-75
2022/01/27 00:50:20;;;;;;;6.88;3.92;;;;;;;-3.05;98.36;100344.78;10375180;28;20452;-75
2022/01/27 00:55:23;;;;;;;10.43;4.45;;;;;;;-2.88;98.31;100380.25;10374544;28;20107;-75
2022/01/27 01:00:35;;;;;;;6.82;4.07;;;;;;;-2.28;98.15;100467.25;10374551;28;20042;-75
2022/01/27 01:16:27;;;;;;;12.13;3.53;;;;;;;-2.82;97.94;100392.94;10372908;28;20048;-74
2022/01/27 01:37:09;;;;;;;5.55;3.28;;;;;;;-2.52;98.28;100433.81;10372239;28;20049;-74
2022/01/27 01:42:11;;;;;;;5.55;3.30;;;;;;;-2.47;97.50;100436.19;10373474;28;20081;-74
2022/01/27 01:47:12;;;;;;;5.70;3.45;;;;;;;-2.59;98.25;100425.50;10372139;28;20050;-74
2022/01/27 01:52:13;;;;;;;5.50;3.13;;;;;;;-2.15;98.38;100500.34;10372466;28;20042;-74
2022/01/27 01:57:14;;;;;;;4.95;2.97;;;;;;;-1.88;98.40;100529.25;10372434;28;20528;-74
2022/01/27 02:02:16;;;;;;;6.13;3.08;;;;;;;-1.54;98.01;100589.03;10372930;28;20049;-74
2022/01/27 02:07:38;;;;;;;5.45;2.95;;;;;;;-2.52;97.72;100446.81;10371776;28;20037;-74
2022/01/27 02:18:00;;;;;;;5.90;3.33;;;;;;;-2.48;97.36;100453.56;10372711;28;20078;-74
2022/01/27 02:23:04;;;;;;;4.82;2.72;;;;;;;-2.49;97.76;100443.22;10372576;28;20036;-74
2022/01/27 02:28:05;;;;;;;5.28;3.25;;;;;;;-2.10;97.64;100497.47;10371824;28;20096;-75
2022/01/27 02:33:06;;;;;;;5.95;3.03;;;;;;;-1.45;97.45;100610.22;10371288;28;20042;-74
2022/01/27 02:38:07;;;;;;;5.88;3.05;;;;;;;-2.01;97.42;100530.81;10371775;28;20108;-74
2022/01/27 02:43:08;;;;;;;5.45;2.67;;;;;;;-1.43;97.88;100602.34;10376323;28;20164;-74
2022/01/27 02:48:11;;;;;;;6.18;2.83;;;;;;;-2.04;97.55;100504.13;10380334;28;20521;-76
2022/01/27 02:53:12;;;;;;;4.80;2.47;;;;;;;-1.70;97.43;100545.63;10379790;28;20452;-75
2022/01/27 02:58:15;;;;;;;5.00;2.83;;;;;;;-1.90;97.90;100507.63;10390399;28;20803;-74
2022/01/27 03:03:16;;;;;;;7.05;2.75;;;;;;;-2.57;97.20;100404.63;10368363;28;20429;-74
2022/01/27 03:08:17;;;;;;;4.03;2.15;;;;;;;-1.74;98.00;100551.91;10367473;28;20052;-74
2022/01/27 03:13:18;;;;;;;4.50;2.28;;;;;;;-1.75;97.64;100580.66;10378870;28;20516;-74
2022/01/27 03:18:19;;;;;;;10.57;2.38;;;;;;;-1.96;97.36;100526.19;10377956;28;20537;-74
2022/01/27 03:23:19;;;;;;;3.42;1.90;;;;;;;-1.48;98.24;100596.53;10377265;28;20038;-74
2022/01/27 03:28:25;;;;;;;4.38;2.42;;;;;;;-1.64;97.92;100557.47;10375110;28;20045;-75
2022/01/27 03:33:25;;;;;;;4.05;2.13;;;;;;;-1.42;97.90;100586.59;10377429;28;20136;-76
2022/01/27 03:38:26;;;;;;;5.07;2.58;;;;;;;-1.84;97.79;100498.66;10375986;28;20560;-76
2022/01/27 03:43:27;;;;;;;3.67;1.98;;;;;;;-1.43;97.49;100561.47;10375336;28;20061;-76
2022/01/27 03:48:29;;;;;;;4.82;2.80;;;;;;;-1.11;97.66;100594.44;10377421;28;20404;-76
2022/01/27 03:53:30;;;;;;;4.63;2.50;;;;;;;-1.16;97.88;100592.97;10376576;28;20100;-76
2022/01/27 03:58:31;;;;;;;4.00;2.22;;;;;;;-1.51;97.71;100545.41;10377287;28;20045;-75
2022/01/27 04:03:36;;;;;;;3.70;1.88;;;;;;;-1.44;98.31;100557.16;10371930;28;20057;-74
2022/01/27 04:08:38;;;;;;;4.45;2.30;;;;;;;-1.57;98.16;100543.16;10416821;28;20048;-75
2022/01/27 04:13:40;;;;;;;6.85;2.10;;;;;;;-1.29;97.94;100583.31;10415304;28;20110;-77
2022/01/27 04:18:40;;;;;;;8.02;2.30;;;;;;;-1.18;97.59;100620.03;10344302;28;20042;-72
2022/01/27 04:23:42;;;;;;;4.00;2.00;;;;;;;-1.19;98.09;100620.97;10334508;28;20045;-73
2022/01/27 04:28:44;;;;;;;5.13;2.10;;;;;;;-2.04;98.01;100476.31;10334016;28;20045;-74
2022/01/27 04:33:45;;;;;;;13.48;2.35;;;;;;;-1.34;98.60;100607.03;10333854;28;20046;-73
2022/01/27 04:39:02;;;;;;;3.90;2.13;;;;;;;-1.13;97.70;100640.66;10333621;28;20038;-74
2022/01/27 04:44:24;;;;;;;6.43;2.15;;;;;;;-1.48;97.99;100563.50;10334213;28;20062;-72
2022/01/27 04:49:25;;;;;;;3.80;1.85;;;;;;;-1.29;97.96;100580.69;10334236;28;20038;-76
2022/01/27 04:54:33;;;;;;;5.93;2.33;;;;;;;-1.06;98.39;100621.94;10334116;28;20042;-74
2022/01/27 04:59:39;;;;;;;3.88;1.77;;;;;;;-1.21;98.18;100596.75;10333600;28;20414;-74
2022/01/27 05:04:43;;;;;;;3.83;1.98;;;;;;;-1.62;97.57;100524.34;10333408;28;20035;-73
2022/01/27 05:09:52;;;;;;;5.25;2.08;;;;;;;-1.69;96.98;100516.03;10333064;28;20045;-73
2022/01/27 05:14:54;;;;;;;4.13;1.80;;;;;;;-1.11;97.64;100616.16;10333205;28;20042;-74
2022/01/27 05:19:55;;;;;;;3.85;2.22;;;;;;;-1.38;97.48;100593.34;10347840;28;20049;-74
2022/01/27 05:24:56;;;;;;;4.75;2.35;;;;;;;-1.40;97.42;100563.91;10331533;28;20046;-75
2022/01/27 05:29:56;;;;;;;4.15;1.90;;;;;;;-1.75;96.92;100505.94;10332707;28;20046;-74
2022/01/27 05:34:57;;;;;;;4.22;2.03;;;;;;;-2.16;96.82;100430.13;10347355;28;20038;-74
2022/01/27 05:39:58;;;;;;;6.07;1.95;;;;;;;-1.92;96.74;100473.03;10331064;28;20049;-74
2022/01/27 05:44:59;;;;;;;4.80;2.35;;;;;;;-2.02;97.55;100455.41;10332120;28;20502;-74
2022/01/27 05:50:00;;;;;;;22.60;5.53;;;;;;;-2.13;96.59;100428.19;10332973;28;20116;-73
2022/01/27 05:55:00;;;;;;;5.32;2.90;;;;;;;-1.54;96.49;100524.75;10331593;28;20049;-73
2022/01/27 06:00:01;;;;;;;5.13;2.65;;;;;;;-1.04;96.84;100611.44;10331184;28;20042;-74
2022/01/27 06:05:03;;;;;;;4.25;2.30;;;;;;;-1.33;96.95;100576.59;10332280;28;20038;-73
2022/01/27 06:10:05;;;;;;;4.78;2.53;;;;;;;-1.03;96.79;100618.34;10331891;28;20078;-73
2022/01/27 06:15:06;;;;;;;9.10;3.03;;;;;;;-1.32;96.62;100591.28;10333273;28;20042;-73
2022/01/27 06:20:08;;;;;;;17.20;3.90;;;;;;;-1.04;96.84;100601.03;10339070;28;20494;-74
2022/01/27 06:25:11;;;;;;;6.95;2.97;;;;;;;-1.44;96.54;100520.69;10338354;28;20054;-74
2022/01/27 06:30:12;;;;;;;4.97;2.83;;;;;;;-1.73;96.14;100432.97;10340114;28;20078;-76
2022/01/27 06:35:13;;;;;;;5.50;3.10;;;;;;;-1.03;96.14;100533.13;10338799;28;20510;-73
2022/01/27 06:40:14;;;;;;;6.35;3.10;;;;;;;-0.43;95.53;100599.19;10339371;28;20192;-73
2022/01/27 06:45:15;;;;;;;4.85;2.80;;;;;;;-1.74;94.58;100384.38;10339180;28;20081;-74
2022/01/27 06:50:16;;;;;;;5.82;3.58;;;;;;;-0.68;95.62;100566.75;10338590;28;20061;-74
2022/01/27 06:55:18;;;;;;;6.15;2.67;;;;;;;-1.13;95.36;100479.84;10338362;28;20046;-74
2022/01/27 07:00:19;;;;;;;6.18;3.28;;;;;;;-0.30;95.73;100597.53;10353184;28;20449;-74
2022/01/27 07:05:20;;;;;;;7.38;2.80;;;;;;;-0.70;95.42;100522.47;10337949;28;20050;-74
2022/01/27 07:10:21;;;;;;;5.32;2.70;;;;;;;-0.21;94.42;100602.19;10337114;28;20049;-74
2022/01/27 07:15:22;;;;;;;5.82;3.03;;;;;;;-0.53;93.85;100525.84;10337690;28;20409;-74
2022/01/27 07:20:23;;;;;;;5.57;2.63;;;;;;;-0.36;94.16;100522.19;10337947;28;20100;-74
2022/01/27 07:25:23;;;;;;;6.07;3.35;;;;;;;0.21;93.67;100600.53;10337096;28;20061;-74
2022/01/27 07:30:25;;;;;;;8.35;2.95;;;;;;;0.05;93.58;100558.81;10336745;28;20058;-74
2022/01/27 07:35:26;;;;;;;6.20;3.40;;;;;;;0.15;93.41;100567.78;10337100;28;20046;-75
2022/01/27 07:40:28;;;;;;;4.68;2.88;;;;;;;-0.52;92.49;100462.28;10336745;28;20042;-74
2022/01/27 07:45:29;;;;;;;4.70;2.72;;;;;;;-1.36;92.57;100309.19;10335755;28;20062;-74
2022/01/27 07:50:31;;;;;;;4.72;2.50;;;;;;;-0.70;92.34;100432.94;10336129;28;20043;-74
2022/01/27 07:55:31;;;;;;;5.60;2.90;;;;;;;-0.17;93.47;100529.75;10335632;28;20042;-74
2022/01/27 08:00:32;;;;;;;6.00;2.50;;;;;;;0.42;92.80;100593.13;10335630;28;20525;-74
2022/01/27 08:05:33;;;;;;;5.43;2.63;;;;;;;0.31;92.00;100577.25;10335772;28;20125;-74
2022/01/27 08:10:38;;;;;;;4.60;2.55;;;;;;;0.29;92.41;100543.38;10335280;28;20133;-74
2022/01/27 08:15:39;;;;;;;5.00;2.40;;;;;;;0.49;92.41;100554.34;10335351;28;20038;-74
2022/01/27 08:20:40;;;;;;;5.70;2.90;;;;;;;-0.20;91.27;100455.06;10335296;28;20449;-77
2022/01/27 08:25:42;;;;;;;6.22;2.80;;;;;;;0.63;91.84;100580.44;10335661;28;20078;-74
2022/01/27 08:30:47;;;;;;;6.10;2.90;;;;;;;0.62;92.00;100576.13;10334823;28;20057;-74
2022/01/27 08:35:49;;;;;;;4.63;2.72;;;;;;;0.63;92.53;100577.84;10334449;28;20515;-74
2022/01/27 08:40:49;;;;;;;4.28;2.40;;;;;;;-0.20;91.63;100418.53;10349278;28;20133;-75
2022/01/27 08:45:50;;;;;;;4.63;2.50;;;;;;;0.00;92.07;100445.97;10333706;28;20137;-74
2022/01/27 08:51:00;;;;;;;3.97;2.50;;;;;;;0.75;91.49;100576.19;10333298;28;20066;-74
2022/01/27 08:56:01;;;;;;;4.50;2.60;;;;;;;0.02;91.61;100438.03;10333098;28;20541;-74
2022/01/27 09:01:03;;;;;;;4.82;2.30;;;;;;;0.11;90.98;100440.06;10333307;28;20034;-75
2022/01/27 09:06:04;;;;;;;4.57;2.45;;;;;;;0.30;91.38;100468.44;10332833;28;20050;-75
2022/01/27 09:11:05;;;;;;;3.90;2.47;;;;;;;0.18;90.58;100433.50;10333688;28;20045;-74
2022/01/27 09:16:06;;;;;;;4.00;2.50;;;;;;;0.60;90.85;100473.44;10332785;28;20042;-74
2022/01/27 09:21:15;;;;;;;4.18;2.30;;;;;;;1.11;90.44;100523.25;10332306;28;20038;-74
2022/01/27 09:31:36;;;;;;;5.20;2.30;;;;;;;0.47;89.26;100379.31;10333129;28;20062;-74
2022/01/27 09:36:37;;;;;;;4.95;3.10;;;;;;;0.81;90.09;100451.13;10331729;28;20489;-75
2022/01/27 09:41:39;;;;;;;4.18;2.40;;;;;;;0.59;89.63;100406.41;10330282;28;20048;-75
2022/01/27 09:46:43;;;;;;;3.72;2.28;;;;;;;0.52;89.56;100398.16;10347773;28;20056;-75
2022/01/27 09:51:46;;;;;;;9.73;2.55;;;;;;;0.70;88.90;100406.53;10331596;28;20042;-76
2022/01/27 09:56:46;;;;;;;5.78;2.50;;;;;;;0.47;89.28;100362.81;10331296;28;20149;-76
2022/01/27 10:02:05;;;;;;;9.98;5.22;;;;;;;1.29;88.40;100460.97;10330184;28;20045;-77
2022/01/27 10:07:06;;;;;;;5.68;3.42;;;;;;;1.65;87.59;100512.56;10331575;28;20045;-76
2022/01/27 10:12:08;;;;;;;7.40;2.97;;;;;;;0.01;87.35;100215.22;10332402;28;20049;-76
2022/01/27 10:17:13;;;;;;;4.53;2.67;;;;;;;1.66;87.05;100489.81;10331934;28;20046;-75
2022/01/27 10:22:13;;;;;;;;;;;;;;;1.88;86.72;100497.00;10332339;28;20498;-75
2022/01/27 10:32:40;;;;;;;5.57;2.47;;;;;;;1.17;85.83;100375.44;10330455;28;20219;-75
2022/01/27 10:37:58;;;;;;;4.53;2.58;;;;;;;0.94;86.27;100330.81;10330624;28;20046;-76
2022/01/27 10:43:12;;;;;;;4.10;2.42;;;;;;;1.48;84.60;100448.28;10331480;28;20149;-76
2022/01/27 10:48:23;;;;;;;;;;;;;;;1.90;86.88;100495.13;10331140;28;20043;-75
2022/01/27 10:53:43;;;;;;;5.47;2.70;;;;;;;1.64;86.55;100495.16;10330234;28;19928;-75
2022/01/27 10:58:45;;;;;;;4.05;2.33;;;;;;;-0.12;86.06;100230.88;10331326;28;20397;-75
2022/01/27 11:03:49;;;;;;;4.32;2.28;;;;;;;1.65;85.60;100507.31;10334783;28;20445;-75
2022/01/27 11:08:54;;;;;;;3.67;2.05;;;;;;;1.24;85.56;100461.28;10352786;28;20042;-75
2022/01/27 11:13:58;;;;;;;3.78;2.10;;;;;;;0.74;85.62;100363.53;10337151;28;20081;-75
2022/01/27 11:20:01;;;;;;;;;;;;;;;1.67;87.11;100515.88;10337730;28;20046;-75
2022/01/27 11:24:31;;;;;;;4.47;2.78;;;;;;;1.60;85.57;100517.28;10344492;28;20284;-75
2022/01/27 11:29:42;;;;;;;3.17;2.08;;;;;;;0.48;84.25;100341.81;10352333;28;20410;-75
2022/01/27 11:34:55;;;;;;;4.18;2.33;;;;;;;0.96;84.97;100412.63;10336311;28;20064;-75
2022/01/27 11:40:00;;;;;;;12.00;2.70;;;;;;;1.62;85.18;100551.22;10336751;28;20278;-75
2022/01/27 11:45:33;;;;;;;4.82;2.75;;;;;;;1.47;84.29;100547.88;10351387;28;20117;-75
2022/01/27 11:51:06;;;;;;;5.20;2.90;;;;;;;1.42;85.00;100549.97;10339299;28;20058;-76
2022/01/27 11:56:31;;;;;;;11.48;4.03;;;;;;;1.37;84.64;100579.03;10336923;28;20046;-76
2022/01/27 12:01:37;;;;;;;5.40;2.55;;;;;;;0.61;84.92;100462.06;10335994;28;20494;-76
2022/01/27 12:06:50;;;;;;;4.63;2.72;;;;;;;0.30;84.46;100418.78;10335673;28;20081;-76
2022/01/27 12:11:55;;;;;;;5.13;3.07;;;;;;;0.17;84.73;100418.75;10335540;28;20121;-76
2022/01/27 12:17:07;;;;;;;;;;;;;;;1.11;84.83;100583.44;10335547;28;20034;-76
2022/01/27 12:22:09;;;;;;;4.65;3.03;;;;;;;0.53;85.07;100516.59;10368285;28;19917;-77
2022/01/27 12:27:18;;;;;;;4.85;2.78;;;;;;;-0.30;84.69;100380.84;10374748;28;20052;-76
2022/01/27 12:32:30;;;;;;;4.25;2.53;;;;;;;1.10;84.58;100592.19;10374653;28;20057;-77
2022/01/27 12:37:34;;;;;;;5.22;2.63;;;;;;;0.93;84.30;100561.94;10375232;28;20038;-78
2022/01/27 12:42:38;;;;;;;7.22;2.72;;;;;;;0.56;84.54;100532.09;10363905;28;20434;-77
2022/01/27 12:47:44;;;;;;;5.07;2.28;;;;;;;0.87;84.89;100598.94;10361020;28;20136;-75
2022/01/27 12:52:47;;;;;;;3.85;2.15;;;;;;;0.77;84.09;100593.44;10374700;28;20137;-74
2022/01/27 12:58:00;;;;;;;2.63;1.75;;;;;;;0.80;84.66;100606.31;10361253;28;20049;-75
2022/01/27 13:03:02;;;;;;;7.65;3.78;;;;;;;0.50;84.60;100558.63;10385257;28;20132;-75
2022/01/27 13:08:08;;;;;;;5.47;2.88;;;;;;;0.40;84.46;100529.63;10366900;28;20501;-76
2022/01/27 13:13:18;;;;;;;3.53;2.15;;;;;;;0.84;84.36;100584.28;10335068;28;20502;-76
2022/01/27 13:18:25;;;;;;;4.22;2.17;;;;;;;0.49;83.88;100534.28;10339992;28;20505;-76
2022/01/27 13:28:36;;;;;;;4.78;2.85;;;;;;;0.91;84.31;100609.09;10353644;28;20050;-75
2022/01/27 13:33:43;;;;;;;5.28;3.40;;;;;;;0.70;84.57;100571.25;10372798;28;20188;-75
2022/01/27 13:44:22;;;;;;;8.48;5.30;;;;;;;-0.04;84.15;100434.03;10339582;28;20046;-74
2022/01/27 13:49:30;;;;;;;5.55;3.42;;;;;;;-0.01;83.66;100434.66;10331348;28;20050;-78
2022/01/27 13:54:31;;;;;;;4.18;2.83;;;;;;;1.03;84.00;100622.31;10329943;28;20050;-79
2022/01/27 14:04:55;;;;;;;7.80;3.42;;;;;;;0.70;83.22;100579.09;10331051;28;20038;-77
2022/01/27 14:10:20;;;;;;;6.43;3.40;;;;;;;0.88;82.59;100614.53;10331716;28;20523;-75
2022/01/27 14:15:34;;;;;;;10.80;3.30;;;;;;;0.51;83.39;100562.91;10337473;28;20497;-81
2022/01/27 14:20:36;;;;;;;4.80;2.95;;;;;;;0.94;83.56;100649.91;10356560;28;20054;-74
2022/01/27 14:25:44;;;;;;;5.75;3.28;;;;;;;0.37;83.53;100569.88;10341834;28;20041;-75
2022/01/27 14:30:46;;;;;;;5.50;3.00;;;;;;;0.82;83.99;100629.78;10384050;28;20045;-78
2022/01/27 14:35:46;;;;;;;9.25;4.40;;;;;;;-0.21;83.73;100474.25;10360428;28;20048;-78
2022/01/27 14:40:48;;;;;;;6.88;4.00;;;;;;;-0.52;84.25;100442.25;10409750;28;20053;-78
2022/01/27 14:45:50;;;;;;;5.20;3.28;;;;;;;0.60;84.62;100643.34;10417336;28;20556;-78
2022/01/27 14:50:51;;;;;;;4.35;2.70;;;;;;;0.21;84.55;100577.00;10414673;28;20051;-78
2022/01/27 14:55:52;;;;;;;8.45;3.10;;;;;;;0.73;84.91;100656.53;10429954;28;20045;-80
2022/01/27 15:00:53;;;;;;;4.68;3.08;;;;;;;0.59;84.34;100657.38;10414450;28;20072;-79
2022/01/27 15:05:53;;;;;;;5.10;3.15;;;;;;;-1.25;84.30;100358.06;10418897;28;20124;-79
2022/01/27 15:10:54;;;;;;;7.93;3.45;;;;;;;0.02;84.07;100571.25;10420080;28;20120;-79
2022/01/27 15:21:16;;;;;;;5.93;3.55;;;;;;;0.45;85.10;100687.00;10418931;28;20041;-79
2022/01/27 15:26:17;;;;;;;6.22;3.65;;;;;;;0.41;84.98;100694.19;10418345;28;20091;-78
2022/01/27 15:31:18;;;;;;;7.50;3.72;;;;;;;0.31;85.45;100687.84;10419282;28;20400;-79
2022/01/27 15:36:22;;;;;;;6.30;3.90;;;;;;;-1.25;85.98;100426.66;10416732;28;20132;-78
2022/01/27 15:41:22;;;;;;;15.93;6.50;;;;;;;-0.41;86.39;100540.75;10413215;28;20065;-77
2022/01/27 15:46:25;;;;;;;12.07;5.93;;;;;;;-0.88;86.22;100470.56;10415626;28;20096;-78
2022/01/27 15:51:26;;;;;;;6.00;3.45;;;;;;;-1.07;85.71;100450.81;10414234;28;20405;-77
2022/01/27 15:56:28;;;;;;;9.68;4.10;;;;;;;-0.86;86.38;100484.38;10392584;28;20061;-80
2022/01/27 16:01:29;;;;;;;6.05;3.30;;;;;;;0.47;86.30;100718.25;10413581;28;20045;-80
2022/01/27 16:06:30;;;;;;;7.15;3.97;;;;;;;0.17;87.13;100649.50;10416496;28;20049;-72
2022/01/27 16:11:31;;;;;;;5.75;3.70;;;;;;;-0.95;86.73;100460.50;10411407;28;20099;-77
2022/01/27 16:16:33;;;;;;;7.90;3.85;;;;;;;0.21;87.43;100652.78;10407395;28;20042;-77
2022/01/27 16:21:34;;;;;;;6.32;4.40;;;;;;;0.64;87.45;100731.16;10415102;28;20389;-77
2022/01/27 16:26:35;;;;;;;5.35;3.63;;;;;;;-0.69;87.16;100497.22;10413946;28;20038;-77
2022/01/27 16:31:36;;;;;;;9.38;3.95;;;;;;;-1.18;86.68;100459.25;10414460;28;20524;-78
2022/01/27 16:36:38;;;;;;;6.63;4.00;;;;;;;0.28;87.72;100674.97;10405931;28;20053;-78
2022/01/27 16:41:39;;;;;;;8.23;3.95;;;;;;;0.22;87.03;100672.72;10411271;28;20053;-78
2022/01/27 16:46:40;;;;;;;6.20;3.88;;;;;;;-0.91;86.73;100489.84;10407814;28;20033;-78
2022/01/27 16:51:42;;;;;;;7.50;4.85;;;;;;;-1.76;86.48;100344.59;10408572;28;20366;-78
2022/01/27 16:56:42;;;;;;;8.10;4.85;;;;;;;-0.77;86.96;100510.72;10407503;28;20073;-78
2022/01/27 17:01:43;;;;;;;9.52;5.57;;;;;;;-1.09;87.05;100473.50;10372167;28;20140;-79
2022/01/27 17:06:44;;;;;;;11.48;6.30;;;;;;;-0.23;87.23;100617.13;10404233;28;20083;-77
2022/01/27 17:11:45;;;;;;;8.68;5.35;;;;;;;-0.47;86.91;100575.91;10390852;28;20889;-79
2022/01/27 17:16:48;;;;;;;9.27;4.97;;;;;;;-1.35;86.64;100445.53;10398176;28;20037;-79
2022/01/27 17:21:50;;;;;;;7.80;5.00;;;;;;;-0.84;87.15;100525.03;10406718;28;20049;-79
2022/01/27 17:26:51;;;;;;;9.48;5.05;;;;;;;-0.08;86.82;100649.31;10396918;28;20033;-77
2022/01/27 17:31:52;;;;;;;10.30;5.38;;;;;;;-0.56;87.25;100571.22;10402120;28;20033;-78
2022/01/27 17:36:53;;;;;;;9.13;5.07;;;;;;;-1.66;86.60;100401.25;10400836;28;20124;-78
2022/01/27 17:42:00;;;;;;;9.20;5.55;;;;;;;-0.54;86.72;100579.81;10422128;28;20047;-78
2022/01/27 17:47:01;;;;;;;10.25;5.78;;;;;;;-1.55;86.63;100429.28;10422695;28;20073;-78
2022/01/27 17:52:02;;;;;;;8.05;5.25;;;;;;;-0.98;87.12;100544.13;10402420;28;20036;-78
2022/01/27 17:57:03;;;;;;;14.40;5.55;;;;;;;-0.56;86.94;100618.19;10420763;28;20039;-78
2022/01/27 18:02:04;;;;;;;11.48;6.40;;;;;;;-0.68;87.52;100603.25;10405808;28;20533;-78
2022/01/27 18:07:07;;;;;;;12.80;6.53;;;;;;;-1.58;86.85;100439.06;10421202;28;20512;-77
2022/01/27 18:12:09;;;;;;;11.50;6.05;;;;;;;-0.64;86.90;100619.56;10409514;28;20033;-80
2022/01/27 18:17:11;;;;;;;9.93;6.15;;;;;;;0.13;86.79;100717.72;10405791;28;20041;-77
2022/01/27 18:22:13;;;;;;;10.70;6.07;;;;;;;-0.86;87.06;100576.47;10405474;28;20493;-77
2022/01/27 18:27:14;;;;;;;9.48;5.82;;;;;;;-0.47;87.32;100622.88;10421108;28;20037;-77
2022/01/27 18:32:15;;;;;;;10.32;6.40;;;;;;;-0.57;87.18;100620.88;10419680;28;20401;-77
2022/01/27 18:37:15;;;;;;;8.93;5.63;;;;;;;-0.74;87.04;100585.38;10420017;28;20037;-76
2022/01/27 18:42:16;;;;;;;10.63;5.43;;;;;;;0.17;87.46;100738.31;10417918;28;20539;-77
2022/01/27 18:47:18;;;;;;;7.18;4.95;;;;;;;-0.96;86.77;100552.72;10415652;28;20512;-76
2022/01/27 18:52:19;;;;;;;11.40;5.78;;;;;;;-0.08;86.98;100705.00;10412306;28;20049;-77
2022/01/27 18:57:19;;;;;;;12.77;7.05;;;;;;;-0.04;87.20;100723.91;10416909;28;20037;-77
2022/01/27 19:02:20;;;;;;;11.68;6.63;;;;;;;-1.24;86.74;100537.81;10417322;28;20051;-76
2022/01/27 19:07:21;;;;;;;10.02;5.70;;;;;;;-0.74;87.06;100622.72;10414404;28;20107;-77
2022/01/27 19:12:22;;;;;;;10.50;6.18;;;;;;;-0.78;87.22;100633.41;10410333;28;20053;-75
2022/01/27 19:17:24;;;;;;;10.13;5.88;;;;;;;-0.10;86.86;100751.25;10409767;28;20102;-75
2022/01/27 19:22:26;;;;;;;11.50;7.25;;;;;;;-0.26;87.08;100740.00;10415250;28;20049;-74
2022/01/27 19:27:27;;;;;;;19.40;10.23;;;;;;;-1.77;87.45;100507.78;10416405;28;20132;-74
2022/01/27 19:32:28;;;;;;;22.48;12.30;;;;;;;-1.53;87.39;100575.91;10415848;28;20463;-74
2022/01/27 19:37:29;;;;;;;26.38;14.27;;;;;;;-1.94;87.53;100524.38;10416549;28;20041;-75
2022/01/27 19:42:30;;;;;;;29.17;16.40;;;;;;;-0.89;87.05;100725.31;10415005;28;20053;-74
2022/01/27 19:47:31;;;;;;;31.35;17.88;;;;;;;-0.90;87.50;100728.84;10416279;28;20053;-74
2022/01/27 19:52:33;;;;;;;30.42;17.13;;;;;;;-2.09;87.00;100559.88;10413826;28;20037;-74
2022/01/27 19:57:34;;;;;;;33.53;17.35;;;;;;;-1.31;86.73;100690.25;10411148;28;20044;-74
2022/01/27 20:02:35;;;;;;;33.20;18.35;;;;;;;-1.40;86.43;100691.59;10420137;28;20055;-74
2022/01/27 20:07:35;;;;;;;34.60;17.08;;;;;;;-2.27;86.29;100558.25;10412647;28;20397;-74
2022/01/27 20:12:36;;;;;;;33.67;17.67;;;;;;;-2.13;86.14;100606.97;10413399;28;20049;-74
2022/01/27 20:17:37;;;;;;;28.95;16.27;;;;;;;-3.27;86.31;100448.97;10413510;28;20037;-74
2022/01/27 20:22:38;;;;;;;33.70;17.92;;;;;;;-1.63;86.46;100749.28;10414427;28;20057;-73
2022/01/27 20:27:41;;;;;;;30.08;16.05;;;;;;;-1.72;86.95;100748.00;10414011;28;20045;-73
2022/01/27 20:32:44;;;;;;;33.35;18.17;;;;;;;-1.81;87.21;100751.09;10414949;28;20065;-73
2022/01/27 20:37:45;;;;;;;36.08;17.65;;;;;;;-2.02;87.44;100744.38;10415818;28;20128;-73
2022/01/27 20:42:46;;;;;;;31.95;17.45;;;;;;;-2.57;87.31;100664.72;10415174;28;20085;-74
2022/01/27 20:47:49;;;;;;;33.25;16.83;;;;;;;-3.04;87.69;100595.09;10415461;28;20124;-73
2022/01/27 20:52:50;;;;;;;32.35;16.80;;;;;;;-2.15;87.92;100745.00;10414716;28;20143;-73
2022/01/27 20:57:50;;;;;;;31.45;16.67;;;;;;;-2.20;87.58;100739.19;10414733;28;20114;-73
2022/01/27 21:02:51;;;;;;;31.92;16.30;;;;;;;-2.92;87.28;100651.69;10412744;28;20052;-73
2022/01/27 21:07:52;;;;;;;37.05;17.08;;;;;;;-2.21;87.97;100754.88;10414891;28;20041;-73
2022/01/27 21:12:53;;;;;;;28.70;15.32;;;;;;;-2.62;87.53;100688.34;10414972;28;20037;-73
2022/01/27 21:17:54;;;;;;;28.65;15.45;;;;;;;-3.78;87.06;100525.06;10415095;28;20044;-73
2022/01/27 21:22:55;;;;;;;30.10;15.95;;;;;;;-2.32;87.38;100753.63;10414524;28;20049;-73
2022/01/27 21:27:56;;;;;;;31.92;15.73;;;;;;;-3.32;86.90;100569.59;10414347;28;20052;-73
2022/01/27 21:32:57;;;;;;;28.88;14.85;;;;;;;-2.36;86.80;100738.25;10413949;28;20121;-73
2022/01/27 21:37:59;;;;;;;29.58;14.70;;;;;;;-2.86;86.78;100668.75;10414441;28;20099;-73
2022/01/27 21:43:00;;;;;;;30.50;14.63;;;;;;;-2.27;86.47;100748.22;10413680;28;20087;-73
2022/01/27 21:48:01;;;;;;;26.80;13.93;;;;;;;-3.74;86.02;100500.63;10412480;28;20046;-76
2022/01/27 21:53:02;;;;;;;27.10;14.13;;;;;;;-2.76;86.37;100665.59;10413422;28;20033;-73
2022/01/27 21:58:03;;;;;;;30.20;16.83;;;;;;;-1.88;86.60;100794.84;10414487;28;20041;-73
2022/01/27 22:03:04;;;;;;;29.67;16.83;;;;;;;-2.13;85.78;100748.34;10413174;28;20034;-73
2022/01/27 22:08:06;;;;;;;27.27;14.43;;;;;;;-2.47;86.03;100725.78;10412463;28;20408;-73
2022/01/27 22:13:08;;;;;;;33.17;15.32;;;;;;;-2.90;85.44;100667.19;10412264;28;20030;-73
2022/01/27 22:18:09;;;;;;;23.42;12.73;;;;;;;-3.17;85.52;100646.84;10412343;28;20120;-73
2022/01/27 22:23:09;;;;;;;27.65;15.23;;;;;;;-3.16;85.43;100656.31;10413918;28;20582;-73
2022/01/27 22:28:10;;;;;;;25.08;14.18;;;;;;;-3.37;85.01;100644.34;10412718;28;20123;-74
2022/01/27 22:33:11;;;;;;;25.33;12.55;;;;;;;-3.60;84.58;100622.03;10406486;28;20128;-73
2022/01/27 22:38:12;;;;;;;22.40;12.55;;;;;;;-3.21;85.36;100695.50;10411160;28;20167;-73
2022/01/27 22:43:13;;;;;;;28.52;14.63;;;;;;;-2.59;85.22;100792.25;10371000;28;20141;-73
2022/01/27 22:48:14;;;;;;;23.42;12.02;;;;;;;-3.03;84.55;100732.78;10371023;28;20129;-73
2022/01/27 22:53:15;;;;;;;21.88;10.88;;;;;;;-4.82;84.62;100455.44;10370639;28;20136;-74
2022/01/27 22:58:16;;;;;;;22.92;11.00;;;;;;;-2.84;84.56;100809.88;10390606;28;20042;-73
2022/01/27 23:03:16;;;;;;;21.67;10.85;;;;;;;-4.22;84.83;100600.59;10378727;28;20048;-73
2022/01/27 23:08:17;;;;;;;22.27;11.73;;;;;;;-3.95;85.48;100668.56;10400082;28;20045;-73
2022/01/27 23:23:32;;;;;;;23.83;11.32;;;;;;;-3.27;85.43;100768.53;10419179;28;20046;-73
2022/01/27 23:28:36;;;;;;;22.10;11.30;;;;;;;-3.40;85.50;100775.19;10418850;28;20077;-75
2022/01/27 23:33:45;;;;;;;22.67;10.33;;;;;;;-3.44;85.56;100745.06;10417887;28;20048;-75
2022/01/27 23:59:43;;;;;;;25.70;13.15;;;;;;;-3.18;86.41;100811.44;10418521;28;20084;-73
